Time;durP1;ratioP1;P1;durP2;ratioP2;P2;SDS_P1;SDS_P2;PMS_P1;PMS_P2;Temp;Humidity;BMP_temperature;BMP_pressure;BME280_temperature;BME280_humidity;BME280_pressure;Samples;Min_cycle;Max_cycle;Signal;HPM_P1;HPM_P2
2021/06/27 00:01:35;;;;;;;38.20;26.60;;;16.40;92.30;;;;;;5014075;28;20470;-67
2021/06/27 00:04:00;;;;;;;39.00;27.80;;;16.30;92.40;;;;;;5014947;28;20049;-67
2021/06/27 00:06:26;;;;;;;34.80;27.97;;;16.30;92.50;;;;;;5014655;28;20486;-67
2021/06/27 00:08:52;;;;;;;33.50;23.57;;;16.30;92.50;;;;;;5014331;28;20046;-67
2021/06/27 00:11:19;;;;;;;39.70;27.23;;;16.30;92.60;;;;;;5014647;28;20050;-67
2021/06/27 00:13:47;;;;;;;30.20;23.03;;;16.30;92.70;;;;;;5014960;28;20129;-67
2021/06/27 00:16:13;;;;;;;38.30;26.83;;;16.30;92.70;;;;;;5013639;28;20049;-67
2021/06/27 00:18:39;;;;;;;32.93;22.57;;;16.20;92.80;;;;;;5014923;28;20054;-67
2021/06/27 00:21:09;;;;;;;40.33;26.93;;;16.30;92.80;;;;;;5014711;28;20054;-68
2021/06/27 00:23:38;;;;;;;36.13;25.63;;;16.30;92.90;;;;;;5013881;28;20520;-67
2021/06/27 00:26:06;;;;;;;38.70;26.57;;;16.20;92.90;;;;;;5014508;28;20486;-67
2021/06/27 00:28:32;;;;;;;34.33;24.80;;;16.20;93.00;;;;;;5014464;28;20478;-67
2021/06/27 00:30:59;;;;;;;40.37;26.97;;;16.20;93.00;;;;;;5013748;28;20056;-67
2021/06/27 00:33:25;;;;;;;38.57;26.53;;;16.10;93.50;;;;;;5014107;28;20232;-68
2021/06/27 00:35:51;;;;;;;38.80;26.30;;;16.10;93.10;;;;;;5014594;28;20050;-67
2021/06/27 00:38:18;;;;;;;37.80;26.17;;;16.10;93.20;;;;;;5013682;28;20438;-68
2021/06/27 00:40:44;;;;;;;36.90;23.07;;;16.00;93.20;;;;;;5013320;28;20050;-67
2021/06/27 00:43:10;;;;;;;37.07;25.83;;;16.00;93.30;;;;;;5014028;28;20053;-67
2021/06/27 00:45:37;;;;;;;38.77;26.27;;;16.00;93.40;;;;;;5013693;28;20506;-67
2021/06/27 00:48:04;;;;;;;34.13;22.20;;;15.90;93.50;;;;;;5014095;28;20053;-67
2021/06/27 00:50:36;;;;;;;38.10;25.10;;;15.90;93.50;;;;;;5013268;28;20426;-67
2021/06/27 00:53:02;;;;;;;37.47;25.80;;;15.90;93.60;;;;;;5014306;28;20124;-67
2021/06/27 00:55:28;;;;;;;34.47;25.23;;;15.90;93.60;;;;;;5013860;28;20494;-67
2021/06/27 00:57:54;;;;;;;35.47;24.07;;;15.90;93.70;;;;;;5013435;28;20129;-67
2021/06/27 01:00:23;;;;;;;38.73;26.70;;;15.90;93.70;;;;;;5013718;28;20229;-67
2021/06/27 01:02:49;;;;;;;41.13;26.70;;;15.90;93.60;;;;;;5013797;28;20058;-67
2021/06/27 01:05:18;;;;;;;36.47;23.83;;;15.90;93.70;;;;;;5012992;28;20077;-67
2021/06/27 01:07:44;;;;;;;37.57;23.70;;;15.90;93.70;;;;;;5013899;28;20546;-67
2021/06/27 01:10:11;;;;;;;29.80;20.70;;;15.90;93.70;;;;;;5013562;28;20132;-67
2021/06/27 01:12:37;;;;;;;36.90;22.57;;;15.90;93.70;;;;;;5012982;28;20050;-67
2021/06/27 01:15:05;;;;;;;35.47;24.17;;;15.90;93.70;;;;;;5013809;28;20046;-67
2021/06/27 01:17:31;;;;;;;38.13;24.87;;;15.90;93.70;;;;;;5013369;28;20045;-67
2021/06/27 01:19:56;;;;;;;32.70;24.07;;;15.80;93.70;;;;;;5013012;28;20414;-67
2021/06/27 01:22:24;;;;;;;39.77;25.13;;;15.80;93.70;;;;;;5013474;28;20053;-67
2021/06/27 01:24:50;;;;;;;37.23;24.30;;;15.80;93.80;;;;;;5013429;28;20049;-67
2021/06/27 01:27:16;;;;;;;32.93;22.83;;;15.70;93.80;;;;;;5012454;28;20513;-67
2021/06/27 01:29:42;;;;;;;40.50;24.67;;;15.80;93.90;;;;;;5013497;28;20049;-67
2021/06/27 01:32:10;;;;;;;38.67;26.03;;;15.70;93.90;;;;;;5013451;28;20054;-67
2021/06/27 01:34:40;;;;;;;42.40;25.97;;;15.70;93.90;;;;;;5012857;28;20086;-67
2021/06/27 01:37:06;;;;;;;43.17;26.63;;;15.70;93.90;;;;;;5013564;28;20058;-67
2021/06/27 01:39:33;;;;;;;42.10;26.20;;;15.70;93.90;;;;;;5013156;28;20050;-67
2021/06/27 01:41:59;;;;;;;39.57;25.87;;;15.70;94.00;;;;;;5012620;28;20049;-67
2021/06/27 01:44:25;;;;;;;40.50;26.67;;;15.70;94.00;;;;;;5013048;28;20072;-67
2021/06/27 01:46:50;;;;;;;41.60;25.97;;;15.70;94.00;;;;;;5012643;28;20045;-67
2021/06/27 01:49:16;;;;;;;39.20;25.10;;;15.70;94.00;;;;;;5012972;28;20095;-67
2021/06/27 01:51:42;;;;;;;43.67;27.73;;;15.70;94.00;;;;;;5012915;28;20046;-67
2021/06/27 01:54:08;;;;;;;40.80;27.23;;;15.70;93.90;;;;;;5012584;28;20053;-67
2021/06/27 01:56:35;;;;;;;40.87;26.50;;;15.70;94.00;;;;;;5012926;28;20477;-67
2021/06/27 01:59:04;;;;;;;39.60;25.97;;;15.70;94.00;;;;;;5012929;28;20054;-67
2021/06/27 02:01:34;;;;;;;39.97;26.53;;;15.60;93.90;;;;;;5011917;28;20057;-67
2021/06/27 02:04:00;;;;;;;39.70;26.47;;;15.70;94.00;;;;;;5012956;28;20490;-67
2021/06/27 02:06:27;;;;;;;35.53;23.03;;;15.60;93.90;;;;;;5012748;28;20050;-67
2021/06/27 02:08:54;;;;;;;33.87;23.07;;;15.60;93.90;;;;;;5012176;28;20387;-67
2021/06/27 02:11:22;;;;;;;39.93;25.90;;;15.60;94.00;;;;;;5012720;28;20053;-67
2021/06/27 02:13:48;;;;;;;34.27;24.93;;;15.50;94.00;;;;;;5013096;28;20042;-67
2021/06/27 02:16:15;;;;;;;40.50;27.20;;;15.50;93.90;;;;;;5012040;28;20046;-67
2021/06/27 02:18:43;;;;;;;36.83;26.37;;;15.50;94.00;;;;;;5012853;28;20517;-67
2021/06/27 02:21:18;;;;;;;34.83;25.40;;;15.50;94.00;;;;;;5012506;28;20198;-67
2021/06/27 02:23:45;;;;;;;36.37;24.10;;;15.60;94.00;;;;;;5011987;28;20057;-67
2021/06/27 02:26:11;;;;;;;34.47;23.50;;;15.60;94.10;;;;;;5012529;28;20462;-67
2021/06/27 02:28:37;;;;;;;40.93;25.40;;;15.50;94.10;;;;;;5012833;28;20052;-67
2021/06/27 02:31:04;;;;;;;35.03;23.43;;;15.50;94.20;;;;;;5012036;28;20125;-67
2021/06/27 02:33:30;;;;;;;32.00;23.43;;;15.50;94.20;;;;;;5012350;28;20084;-67
2021/06/27 02:35:57;;;;;;;35.70;25.43;;;15.50;94.10;;;;;;5012450;28;20125;-67
2021/06/27 02:38:23;;;;;;;38.13;25.30;;;15.40;94.10;;;;;;5012169;28;20054;-67
2021/06/27 02:40:50;;;;;;;38.43;25.10;;;15.40;94.10;;;;;;5012666;28;20049;-67
2021/06/27 02:43:18;;;;;;;35.77;25.63;;;15.40;94.10;;;;;;5011748;28;20049;-67
2021/06/27 02:45:45;;;;;;;34.77;25.00;;;15.40;94.00;;;;;;5012736;28;20046;-67
2021/06/27 02:48:11;;;;;;;40.30;25.10;;;15.50;94.10;;;;;;5012253;28;20104;-68
2021/06/27 02:50:40;;;;;;;41.00;26.50;;;15.40;94.00;;;;;;5011782;28;20049;-67
2021/06/27 02:53:07;;;;;;;40.17;25.50;;;15.40;94.00;;;;;;5012429;28;20111;-67
2021/06/27 02:55:33;;;;;;;40.67;26.20;;;15.40;94.10;;;;;;5012316;28;20216;-67
2021/06/27 02:57:59;;;;;;;36.10;21.77;;;15.40;94.10;;;;;;5011775;28;20061;-67
2021/06/27 03:00:25;;;;;;;36.17;23.83;;;15.30;94.20;;;;;;5011906;28;20418;-67
2021/06/27 03:02:53;;;;;;;37.73;23.57;;;15.30;94.20;;;;;;5012124;28;20145;-67
2021/06/27 03:05:19;;;;;;;44.13;27.30;;;15.30;94.20;;;;;;5013566;28;20103;-67
2021/06/27 03:07:45;;;;;;;36.10;24.60;;;15.30;94.30;;;;;;5015953;28;20383;-66
2021/06/27 03:10:16;;;;;;;39.80;25.47;;;15.20;94.30;;;;;;5015795;28;20050;-66
2021/06/27 03:12:45;;;;;;;37.22;25.45;;;15.30;94.40;;;;;;5015454;28;20049;-67
2021/06/27 03:15:14;;;;;;;42.63;27.67;;;15.30;94.40;;;;;;5015874;28;20050;-66
2021/06/27 03:17:40;;;;;;;43.20;28.33;;;15.30;94.40;;;;;;5016049;28;20050;-66
2021/06/27 03:20:08;;;;;;;38.67;25.80;;;15.30;94.50;;;;;;5015243;28;20042;-66
2021/06/27 03:22:34;;;;;;;44.50;25.53;;;15.30;94.60;;;;;;5015567;28;20064;-66
2021/06/27 03:25:01;;;;;;;39.37;25.13;;;15.30;94.60;;;;;;5015935;28;20052;-66
2021/06/27 03:27:27;;;;;;;44.77;26.67;;;15.30;94.60;;;;;;5014651;28;20490;-66
2021/06/27 03:29:52;;;;;;;34.80;22.30;;;15.20;94.70;;;;;;5015784;28;20056;-66
2021/06/27 03:32:18;;;;;;;38.03;26.33;;;15.20;94.80;;;;;;5014718;28;20054;-66
2021/06/27 03:34:44;;;;;;;40.90;26.83;;;15.30;94.80;;;;;;5015483;28;20133;-66
2021/06/27 03:37:10;;;;;;;34.70;24.63;;;15.30;94.80;;;;;;5015285;28;20068;-66
2021/06/27 03:39:36;;;;;;;37.77;24.97;;;15.30;94.80;;;;;;5014842;28;20057;-67
2021/06/27 03:42:03;;;;;;;50.77;28.07;;;15.30;94.80;;;;;;5015452;28;20057;-66
2021/06/27 03:44:30;;;;;;;46.70;27.70;;;15.30;94.80;;;;;;5015108;28;20053;-66
2021/06/27 03:46:56;;;;;;;50.07;28.90;;;15.30;94.90;;;;;;5014710;28;20072;-66
2021/06/27 03:49:22;;;;;;;45.67;26.70;;;15.30;95.00;;;;;;5015124;28;20133;-66
2021/06/27 03:51:48;;;;;;;52.83;29.23;;;15.40;95.00;;;;;;5015370;28;20085;-66
2021/06/27 03:54:15;;;;;;;52.00;29.77;;;15.40;95.00;;;;;;5014261;28;20045;-66
2021/06/27 03:56:41;;;;;;;49.27;29.50;;;15.40;95.00;;;;;;5015354;28;20509;-66
2021/06/27 03:59:07;;;;;;;45.87;27.57;;;15.40;95.10;;;;;;5015101;28;20053;-66
2021/06/27 04:01:33;;;;;;;46.90;29.53;;;15.50;95.10;;;;;;5014049;28;20054;-67
2021/06/27 04:04:00;;;;;;;47.70;28.87;;;15.50;95.20;;;;;;5015036;28;20061;-66
2021/06/27 04:06:26;;;;;;;49.57;29.13;;;15.50;95.10;;;;;;5014801;28;20038;-66
2021/06/27 04:08:52;;;;;;;45.50;28.30;;;15.50;95.10;;;;;;5014267;28;20076;-66
2021/06/27 04:11:18;;;;;;;53.93;29.63;;;15.60;95.20;;;;;;5014569;28;20053;-66
2021/06/27 04:13:43;;;;;;;50.57;30.47;;;15.60;95.20;;;;;;5014787;28;20046;-66
2021/06/27 04:16:09;;;;;;;53.33;30.83;;;15.60;95.20;;;;;;5013361;28;20045;-66
2021/06/27 04:18:37;;;;;;;51.70;29.00;;;15.60;95.20;;;;;;5014937;28;20056;-66
2021/06/27 04:21:04;;;;;;;50.80;29.13;;;15.70;95.20;;;;;;5014839;28;20046;-67
2021/06/27 04:23:32;;;;;;;49.07;29.53;;;15.70;95.20;;;;;;5013837;28;20053;-67
2021/06/27 04:25:58;;;;;;;52.60;30.57;;;15.70;95.30;;;;;;5014594;28;20402;-67
2021/06/27 04:28:24;;;;;;;54.43;28.60;;;15.80;95.30;;;;;;5020109;28;20047;-67
2021/06/27 04:30:50;;;;;;;51.77;29.80;;;15.80;95.30;;;;;;5021478;28;20456;-67
2021/06/27 04:33:18;;;;;;;51.60;29.43;;;15.80;95.30;;;;;;5023059;28;20557;-67
2021/06/27 04:35:45;;;;;;;49.57;30.67;;;15.80;95.30;;;;;;5027032;28;20129;-67
2021/06/27 04:38:18;;;;;;;46.93;27.87;;;15.80;95.30;;;;;;5033998;28;20136;-67
2021/06/27 04:40:44;;;;;;;46.63;27.47;;;15.90;95.40;;;;;;5034216;28;20046;-66
2021/06/27 04:43:11;;;;;;;52.23;28.23;;;15.90;95.40;;;;;;5032982;28;20421;-67
2021/06/27 04:45:40;;;;;;;55.27;29.30;;;15.90;95.40;;;;;;5034123;28;20069;-67
2021/06/27 04:48:06;;;;;;;50.77;28.23;;;15.90;95.40;;;;;;5034202;28;20140;-67
2021/06/27 04:50:33;;;;;;;47.00;28.10;;;16.00;95.40;;;;;;5032948;28;20050;-67
2021/06/27 04:52:58;;;;;;;49.57;29.50;;;16.00;95.40;;;;;;5033955;28;20049;-67
2021/06/27 04:55:24;;;;;;;54.27;31.00;;;16.10;95.40;;;;;;5033543;28;20409;-67
2021/06/27 04:57:50;;;;;;;56.10;29.30;;;16.10;95.40;;;;;;5033024;28;20045;-67
2021/06/27 05:00:16;;;;;;;55.17;30.33;;;16.10;95.50;;;;;;5033556;28;20049;-68
2021/06/27 05:02:44;;;;;;;48.27;29.80;;;16.10;95.50;;;;;;5033613;28;20554;-67
2021/06/27 05:05:11;;;;;;;60.50;30.67;;;16.20;95.50;;;;;;5032573;28;20455;-67
2021/06/27 05:07:37;;;;;;;56.03;30.90;;;16.20;95.50;;;;;;5033718;28;20413;-67
2021/06/27 05:10:04;;;;;;;49.97;29.60;;;16.20;95.50;;;;;;5033724;28;20046;-67
2021/06/27 05:12:31;;;;;;;54.53;29.43;;;16.30;95.50;;;;;;5032359;28;20057;-67
2021/06/27 05:14:57;;;;;;;47.63;28.47;;;16.30;95.50;;;;;;5033741;28;20395;-67
2021/06/27 05:17:22;;;;;;;48.33;27.57;;;16.30;95.60;;;;;;5033290;28;20052;-67
2021/06/27 05:19:48;;;;;;;46.87;27.93;;;16.40;95.60;;;;;;5032830;28;20053;-67
2021/06/27 05:22:14;;;;;;;48.90;28.93;;;16.50;95.70;;;;;;5033174;28;20057;-66
2021/06/27 05:24:40;;;;;;;42.33;27.13;;;16.50;95.70;;;;;;5033251;28;20535;-66
2021/06/27 05:27:06;;;;;;;42.20;26.07;;;16.60;95.70;;;;;;5031837;28;20080;-66
2021/06/27 05:29:31;;;;;;;43.57;26.23;;;16.60;95.60;;;;;;5032903;28;20045;-66
2021/06/27 05:31:57;;;;;;;40.60;25.50;;;16.70;95.60;;;;;;5032531;28;20440;-66
2021/06/27 05:34:23;;;;;;;41.70;24.23;;;16.70;95.50;;;;;;5032863;28;20046;-67
2021/06/27 05:36:48;;;;;;;41.97;25.27;;;16.80;95.50;;;;;;5033251;28;20231;-67
2021/06/27 05:39:14;;;;;;;38.87;25.70;;;16.90;95.40;;;;;;5031998;28;20049;-65
2021/06/27 05:41:40;;;;;;;39.33;25.60;;;16.90;95.40;;;;;;5032917;28;20045;-66
2021/06/27 05:44:07;;;;;;;39.13;26.27;;;16.90;95.30;;;;;;5033126;28;20049;-66
2021/06/27 05:46:34;;;;;;;33.60;23.93;;;17.00;95.30;;;;;;5032201;28;20049;-66
2021/06/27 05:49:01;;;;;;;37.07;24.70;;;17.00;95.20;;;;;;5033146;28;20498;-66
2021/06/27 05:51:27;;;;;;;36.57;26.03;;;17.00;95.10;;;;;;5032471;28;20060;-66
2021/06/27 05:53:53;;;;;;;35.20;25.07;;;17.10;95.10;;;;;;5032135;28;20049;-67
2021/06/27 05:56:19;;;;;;;34.67;22.40;;;17.10;95.10;;;;;;5032500;28;20457;-67
2021/06/27 05:58:46;;;;;;;31.00;23.03;;;17.20;95.10;;;;;;5032991;28;20099;-67
2021/06/27 06:01:16;;;;;;;33.77;24.50;;;17.20;95.10;;;;;;5031709;28;20096;-66
2021/06/27 06:03:43;;;;;;;30.23;23.90;;;17.30;95.00;;;;;;5032908;28;20073;-67
2021/06/27 06:06:10;;;;;;;31.90;22.50;;;17.40;94.90;;;;;;5032389;28;20382;-67
2021/06/27 06:08:41;;;;;;;31.37;22.90;;;17.40;94.70;;;;;;5031859;28;20056;-67
2021/06/27 06:11:08;;;;;;;31.63;23.87;;;17.40;94.60;;;;;;5032451;28;20072;-67
2021/06/27 06:13:33;;;;;;;27.33;22.07;;;17.50;94.60;;;;;;5032740;28;20061;-67
2021/06/27 06:15:59;;;;;;;31.67;22.90;;;17.50;94.50;;;;;;5031915;28;20050;-67
2021/06/27 06:18:25;;;;;;;33.70;23.47;;;17.50;94.50;;;;;;5030872;28;20060;-67
2021/06/27 06:20:50;;;;;;;26.40;22.40;;;17.50;94.40;;;;;;5032475;28;20119;-66
2021/06/27 06:23:16;;;;;;;27.87;21.27;;;17.60;94.40;;;;;;5031453;28;20045;-67
2021/06/27 06:25:41;;;;;;;30.93;21.63;;;17.60;94.30;;;;;;5032543;28;20145;-66
2021/06/27 06:28:07;;;;;;;28.03;23.87;;;17.60;94.20;;;;;;5031675;28;20056;-66
2021/06/27 06:30:33;;;;;;;30.67;21.10;;;17.70;94.10;;;;;;5032141;28;20042;-67
2021/06/27 06:32:58;;;;;;;24.80;19.93;;;17.70;94.10;;;;;;5032269;28;20049;-67
2021/06/27 06:35:24;;;;;;;29.40;22.40;;;17.70;94.00;;;;;;5031314;28;20131;-67
2021/06/27 06:37:49;;;;;;;25.40;20.67;;;17.80;94.00;;;;;;5032434;28;20056;-67
2021/06/27 06:40:15;;;;;;;27.10;22.13;;;17.80;94.00;;;;;;5036031;28;20080;-67
2021/06/27 06:42:40;;;;;;;25.50;19.87;;;17.90;93.90;;;;;;5035800;28;20045;-67
2021/06/27 06:45:07;;;;;;;27.70;20.93;;;17.90;93.80;;;;;;5036327;28;20095;-66
2021/06/27 06:47:33;;;;;;;26.53;20.47;;;18.00;93.70;;;;;;5036135;28;20050;-67
2021/06/27 06:49:59;;;;;;;27.07;20.13;;;18.10;93.70;;;;;;5035634;28;20054;-66
2021/06/27 06:52:25;;;;;;;25.67;19.97;;;18.10;93.60;;;;;;5035664;28;20132;-67
2021/06/27 06:54:50;;;;;;;26.30;18.87;;;18.10;93.50;;;;;;5036069;28;20061;-66
2021/06/27 06:57:16;;;;;;;23.10;19.80;;;18.20;93.40;;;;;;5035203;28;20042;-66
2021/06/27 06:59:42;;;;;;;23.77;19.13;;;18.20;93.30;;;;;;5035781;28;20077;-67
2021/06/27 07:02:08;;;;;;;23.00;17.90;;;18.30;93.20;;;;;;5036002;28;20084;-66
2021/06/27 07:04:34;;;;;;;22.07;18.13;;;18.30;93.20;;;;;;5035110;28;20076;-66
2021/06/27 07:07:00;;;;;;;26.00;18.97;;;18.30;93.20;;;;;;5035793;28;20057;-66
2021/06/27 07:09:25;;;;;;;23.63;18.33;;;18.40;93.20;;;;;;5035146;28;20383;-66
2021/06/27 07:11:51;;;;;;;21.93;17.97;;;18.40;93.10;;;;;;5033951;28;20107;-66
2021/06/27 07:14:16;;;;;;;21.87;17.33;;;18.50;93.10;;;;;;5035437;28;20060;-66
2021/06/27 07:16:42;;;;;;;21.37;17.47;;;18.60;93.10;;;;;;5035466;28;20050;-67
2021/06/27 07:19:08;;;;;;;20.83;17.73;;;18.70;93.00;;;;;;5034878;28;20056;-66
2021/06/27 07:21:33;;;;;;;23.40;17.97;;;18.80;92.80;;;;;;5022370;28;20471;-66
2021/06/27 07:24:00;;;;;;;19.57;16.53;;;18.80;92.70;;;;;;5015823;28;20053;-67
2021/06/27 07:26:26;;;;;;;22.53;17.30;;;18.90;92.50;;;;;;5026177;28;20510;-66
2021/06/27 07:28:52;;;;;;;21.30;16.53;;;19.00;92.50;;;;;;5035424;28;20133;-66
2021/06/27 07:31:17;;;;;;;21.33;16.53;;;19.00;92.40;;;;;;5034458;28;20073;-66
2021/06/27 07:33:43;;;;;;;21.17;16.23;;;19.10;92.30;;;;;;5034448;28;20055;-67
2021/06/27 07:36:09;;;;;;;19.43;16.43;;;19.20;92.20;;;;;;5034315;28;20409;-66
2021/06/27 07:38:35;;;;;;;19.83;16.63;;;19.20;92.00;;;;;;5034457;28;20046;-66
2021/06/27 07:41:01;;;;;;;21.00;17.30;;;19.30;91.90;;;;;;5035032;28;20045;-66
2021/06/27 07:43:26;;;;;;;18.80;16.80;;;19.40;91.70;;;;;;5034776;28;20133;-66
2021/06/27 07:45:53;;;;;;;21.63;17.37;;;19.40;91.60;;;;;;5034148;28;20490;-66
2021/06/27 07:48:19;;;;;;;20.97;15.60;;;19.40;91.40;;;;;;5034635;28;20097;-66
2021/06/27 07:50:45;;;;;;;21.27;16.53;;;19.50;91.40;;;;;;5027814;28;20443;-66
2021/06/27 07:53:11;;;;;;;20.63;16.30;;;19.70;91.40;;;;;;5013994;28;20453;-66
2021/06/27 07:55:37;;;;;;;21.93;16.63;;;19.80;91.40;;;;;;5014994;28;20046;-66
2021/06/27 07:58:03;;;;;;;20.57;15.73;;;19.90;91.20;;;;;;5015236;28;20142;-66
2021/06/27 08:00:30;;;;;;;18.73;16.07;;;20.00;90.90;;;;;;5013842;28;20484;-66
2021/06/27 08:02:56;;;;;;;21.70;17.07;;;20.10;90.90;;;;;;5014810;28;20120;-66
2021/06/27 08:05:22;;;;;;;21.43;17.60;;;20.10;90.80;;;;;;5014546;28;20482;-66
2021/06/27 08:07:48;;;;;;;20.90;17.20;;;20.20;90.80;;;;;;5014339;28;20107;-66
2021/06/27 08:10:14;;;;;;;19.13;16.83;;;20.30;90.60;;;;;;5014778;28;20501;-66
2021/06/27 08:12:41;;;;;;;19.87;17.63;;;20.40;90.30;;;;;;5014736;28;20185;-66
2021/06/27 08:15:09;;;;;;;21.63;18.10;;;20.40;90.10;;;;;;5014017;28;20107;-66
2021/06/27 08:17:35;;;;;;;19.23;16.70;;;20.40;90.00;;;;;;5014598;28;20053;-66
2021/06/27 08:20:02;;;;;;;23.33;17.50;;;20.40;90.30;;;;;;5014711;28;20133;-66
2021/06/27 08:22:28;;;;;;;19.60;17.53;;;20.50;89.70;;;;;;5013452;28;20870;-66
2021/06/27 08:24:53;;;;;;;20.73;18.10;;;20.40;89.60;;;;;;5014500;28;20075;-66
2021/06/27 08:27:19;;;;;;;22.30;18.17;;;20.40;89.70;;;;;;5014373;28;20050;-66
2021/06/27 08:29:45;;;;;;;23.53;18.53;;;20.30;89.60;;;;;;5013872;28;20050;-66
2021/06/27 08:32:10;;;;;;;20.43;17.07;;;20.30;89.50;;;;;;5014004;28;20066;-66
2021/06/27 08:34:36;;;;;;;25.00;18.83;;;20.30;89.40;;;;;;5014313;28;20042;-66
2021/06/27 08:37:02;;;;;;;21.97;18.33;;;20.30;89.60;;;;;;5013442;28;20060;-66
2021/06/27 08:39:28;;;;;;;20.80;18.33;;;20.40;89.50;;;;;;5013864;28;20054;-66
2021/06/27 08:41:54;;;;;;;21.03;18.77;;;20.40;89.30;;;;;;5013264;28;20049;-66
2021/06/27 08:44:21;;;;;;;20.70;18.57;;;20.50;89.10;;;;;;5013975;28;20050;-66
2021/06/27 08:46:49;;;;;;;20.73;18.57;;;20.40;89.20;;;;;;5014283;28;20050;-66
2021/06/27 08:49:15;;;;;;;21.63;19.23;;;20.60;89.40;;;;;;5012900;28;20054;-66
2021/06/27 08:51:41;;;;;;;21.70;17.63;;;20.80;89.40;;;;;;5014166;28;20077;-66
2021/06/27 08:54:11;;;;;;;19.30;16.80;;;20.80;89.10;;;;;;5013748;28;20435;-66
2021/06/27 08:56:40;;;;;;;25.27;19.53;;;21.00;89.20;;;;;;5013415;28;20100;-66
2021/06/27 08:59:06;;;;;;;21.30;19.20;;;21.10;88.50;;;;;;5013335;28;20609;-66
2021/06/27 09:01:31;;;;;;;22.27;18.67;;;21.10;87.60;;;;;;5008401;28;20145;-66
2021/06/27 09:04:01;;;;;;;22.23;19.27;;;21.10;87.40;;;;;;5010008;28;20499;-66
2021/06/27 09:06:35;;;;;;;20.75;18.55;;;21.20;86.70;;;;;;5013650;28;20402;-66
2021/06/27 09:09:15;;;;;;;21.33;17.67;;;21.20;86.70;;;;;;5013611;28;20053;-66
2021/06/27 09:11:56;;;;;;;19.80;17.55;;;21.30;86.70;;;;;;5012819;28;20494;-66
2021/06/27 09:14:43;;;;;;;20.50;18.30;;;21.30;86.70;;;;;;5013174;28;20052;-66
2021/06/27 09:17:08;;;;;;;20.70;18.02;;;21.50;86.90;;;;;;5012602;28;20103;-66
2021/06/27 09:19:52;;;;;;;21.63;19.42;;;21.70;86.60;;;;;;5013667;28;20125;-67
2021/06/27 09:22:23;;;;;;;19.38;17.30;;;21.70;85.10;;;;;;5013067;28;20515;-66
2021/06/27 09:25:23;;;;;;;20.15;18.05;;;21.70;85.50;;;;;;5109194;27;20941;-66
2021/06/27 09:28:09;;;;;;;19.85;17.77;;;21.80;84.70;;;;;;5108785;28;20048;-66
2021/06/27 09:30:50;;;;;;;21.33;18.65;;;21.80;84.50;;;;;;5107866;28;20508;-66
2021/06/27 09:33:18;;;;;;;20.95;17.70;;;21.80;83.80;;;;;;5107876;28;20051;-66
2021/06/27 09:35:55;;;;;;;19.55;17.42;;;21.90;83.90;;;;;;5108829;28;20044;-65
2021/06/27 09:38:25;;;;;;;19.70;17.70;;;21.90;83.20;;;;;;5107439;28;20077;-66
2021/06/27 09:41:05;;;;;;;19.38;17.38;;;22.00;83.30;;;;;;5108942;28;20055;-66
2021/06/27 09:43:34;;;;;;;19.50;17.03;;;22.00;83.20;;;;;;5109906;28;20143;-66
2021/06/27 09:46:12;;;;;;;19.88;17.88;;;22.00;82.90;;;;;;5109299;28;20752;-65
2021/06/27 09:48:58;;;;;;;20.13;18.02;;;22.10;81.50;;;;;;5110006;28;20064;-66
2021/06/27 09:51:28;;;;;;;18.67;16.45;;;22.30;81.10;;;;;;5109361;28;20155;-66
2021/06/27 09:53:55;;;;;;;20.10;17.20;;;22.30;80.30;;;;;;5109245;28;20043;-66
2021/06/27 09:56:23;;;;;;;17.50;15.82;;;22.30;80.20;;;;;;5109671;28;20048;-66
2021/06/27 09:59:03;;;;;;;17.67;15.88;;;22.30;80.10;;;;;;5109645;28;20093;-66
2021/06/27 10:01:30;;;;;;;19.27;17.20;;;22.20;80.20;;;;;;5109332;28;20415;-66
2021/06/27 10:03:58;;;;;;;17.00;15.38;;;22.30;79.90;;;;;;5109536;28;20131;-66
2021/06/27 10:06:32;;;;;;;17.98;15.75;;;22.40;79.90;;;;;;5108304;28;20150;-66
2021/06/27 10:09:12;;;;;;;17.23;15.48;;;22.40;79.10;;;;;;5109703;28;20055;-66
2021/06/27 10:11:52;;;;;;;16.33;14.27;;;22.30;79.10;;;;;;5109973;28;20130;-66
2021/06/27 10:14:18;;;;;;;17.45;15.75;;;22.30;79.70;;;;;;5108324;28;20071;-66
2021/06/27 10:16:43;;;;;;;19.17;14.93;;;22.40;79.70;;;;;;5109192;28;20043;-66
2021/06/27 10:19:09;;;;;;;16.00;14.40;;;22.50;79.80;;;;;;5109348;28;20050;-66
2021/06/27 10:21:36;;;;;;;17.42;15.55;;;22.60;79.70;;;;;;5108686;28;20076;-66
2021/06/27 10:24:02;;;;;;;17.60;15.80;;;22.50;79.00;;;;;;5109000;28;20060;-66
2021/06/27 10:26:28;;;;;;;18.23;16.40;;;22.60;78.80;;;;;;5109048;28;20051;-66
2021/06/27 10:28:55;;;;;;;17.98;16.25;;;22.60;79.00;;;;;;5107764;28;20060;-66
2021/06/27 10:31:25;;;;;;;17.38;14.80;;;22.70;78.40;;;;;;5108285;28;20423;-66
2021/06/27 10:33:51;;;;;;;15.85;14.20;;;22.70;78.50;;;;;;5109121;28;20090;-65
2021/06/27 10:36:37;;;;;;;18.13;15.88;;;22.70;78.80;;;;;;5094431;28;20407;-66
2021/06/27 10:39:11;;;;;;;15.90;14.38;;;22.90;78.20;;;;;;5095517;28;20052;-65
2021/06/27 10:41:55;;;;;;;17.17;15.07;;;22.90;78.10;;;;;;5094590;28;20123;-66
2021/06/27 10:44:24;;;;;;;14.60;13.10;;;23.00;77.30;;;;;;5094894;28;20048;-65
2021/06/27 10:46:53;;;;;;;16.83;15.13;;;23.00;77.80;;;;;;5095025;28;20044;-66
2021/06/27 10:49:30;;;;;;;16.63;14.85;;;23.10;77.30;;;;;;5094069;28;20455;-66
2021/06/27 10:52:07;;;;;;;15.82;14.13;;;23.00;76.60;;;;;;5095149;28;20126;-66
2021/06/27 10:54:36;;;;;;;17.23;14.75;;;23.00;76.50;;;;;;5094920;28;20040;-66
2021/06/27 10:57:03;;;;;;;17.73;15.73;;;22.90;77.20;;;;;;5094435;28;20094;-66
2021/06/27 10:59:38;;;;;;;16.63;14.90;;;22.90;77.20;;;;;;5094548;28;20052;-65
2021/06/27 11:02:20;;;;;;;16.75;14.93;;;23.00;77.00;;;;;;5094966;28;20048;-66
2021/06/27 11:04:51;;;;;;;16.02;14.52;;;23.10;77.00;;;;;;5094669;28;20052;-65
2021/06/27 11:07:32;;;;;;;16.50;13.98;;;23.10;76.40;;;;;;5094474;28;20068;-66
2021/06/27 11:10:16;;;;;;;;;;;23.20;76.20;;;;;;5094347;28;20080;-66
2021/06/27 11:13:02;;;;;;;14.82;13.20;;;23.30;76.90;;;;;;5094509;28;20376;-65
2021/06/27 11:15:45;;;;;;;16.98;15.18;;;23.30;76.20;;;;;;5086604;28;20175;-66
2021/06/27 11:18:12;;;;;;;15.75;14.15;;;23.30;75.80;;;;;;5093081;28;20052;-65
2021/06/27 11:20:52;;;;;;;15.35;13.68;;;23.20;75.90;;;;;;5094409;28;20186;-66
2021/06/27 11:23:19;;;;;;;17.05;14.15;;;23.30;75.50;;;;;;5093439;28;20062;-66
2021/06/27 11:25:48;;;;;;;18.65;14.63;;;23.30;75.20;;;;;;5093533;28;20052;-66
2021/06/27 11:28:20;;;;;;;16.80;15.10;;;23.40;75.30;;;;;;5093863;28;20476;-66
2021/06/27 11:30:48;;;;;;;18.45;13.80;;;23.50;75.30;;;;;;5093686;28;20089;-66
2021/06/27 11:33:25;;;;;;;14.73;13.23;;;23.70;75.00;;;;;;5093743;28;20044;-66
2021/06/27 11:35:52;;;;;;;15.85;14.18;;;24.00;74.40;;;;;;5094262;28;20105;-66
2021/06/27 11:38:42;;;;;;;16.80;15.15;;;24.10;73.50;;;;;;5093114;28;20089;-67
2021/06/27 11:41:32;;;;;;;15.50;14.10;;;24.20;71.80;;;;;;5093787;28;20072;-67
2021/06/27 11:44:08;;;;;;;13.68;12.38;;;24.20;71.50;;;;;;5093666;28;20399;-66
2021/06/27 11:46:42;;;;;;;13.93;11.85;;;24.30;71.10;;;;;;5091946;28;20096;-66
2021/06/27 11:49:16;;;;;;;13.60;12.27;;;24.40;70.60;;;;;;5093892;28;20048;-66
2021/06/27 11:51:50;;;;;;;13.85;11.55;;;24.50;69.30;;;;;;5092924;28;20048;-66
2021/06/27 11:54:24;;;;;;;14.05;12.63;;;24.50;69.10;;;;;;5093263;28;20056;-66
2021/06/27 11:57:16;;;;;;;14.88;13.18;;;24.40;69.50;;;;;;5094010;28;20054;-66
2021/06/27 11:59:53;;;;;;;13.13;11.93;;;24.40;70.30;;;;;;5090698;28;20099;-66
2021/06/27 12:02:29;;;;;;;12.30;11.07;;;24.40;69.60;;;;;;5093004;28;20044;-66
2021/06/27 12:04:57;;;;;;;12.38;11.07;;;24.50;69.60;;;;;;5093347;28;20097;-66
2021/06/27 12:07:26;;;;;;;13.15;11.75;;;24.60;69.20;;;;;;5092454;28;20488;-67
2021/06/27 12:09:53;;;;;;;13.68;11.35;;;24.60;68.80;;;;;;5093204;28;20548;-65
2021/06/27 12:12:45;;;;;;;12.48;11.07;;;24.70;69.40;;;;;;5092551;28;20366;-65
2021/06/27 12:15:14;;;;;;;12.45;11.25;;;24.80;68.70;;;;;;5092339;28;20048;-65
2021/06/27 12:17:40;;;;;;;11.73;10.52;;;24.80;68.40;;;;;;5092561;28;20055;-65
2021/06/27 12:20:06;;;;;;;12.75;10.73;;;24.90;68.30;;;;;;5091749;28;20048;-66
2021/06/27 12:22:32;;;;;;;12.25;11.13;;;25.00;67.70;;;;;;5092477;28;20052;-66
2021/06/27 12:25:03;;;;;;;11.98;10.77;;;25.10;67.10;;;;;;5092806;28;20051;-66
2021/06/27 12:27:29;;;;;;;11.38;10.32;;;25.10;66.80;;;;;;5091647;28;20428;-66
2021/06/27 12:29:55;;;;;;;10.98;9.90;;;25.10;67.10;;;;;;5092673;28;20044;-66
2021/06/27 12:32:22;;;;;;;12.15;10.82;;;25.20;66.70;;;;;;5091990;28;20048;-66
2021/06/27 12:34:48;;;;;;;11.95;10.82;;;25.10;66.60;;;;;;5091944;28;20040;-67